sensor_id;sensor_type;location;lat;lon;timestamp;P1;durP1;ratioP1;P2;durP2;ratioP2
66559;SDS011;53413;49.878;8.142;2023-03-09T00:02:01;12.27;;;6.13;;
66559;SDS011;53413;49.878;8.142;2023-03-09T00:04:27;11.70;;;5.80;;
66559;SDS011;53413;49.878;8.142;2023-03-09T00:06:52;10.23;;;5.10;;
66559;SDS011;53413;49.878;8.142;2023-03-09T00:09:18;13.60;;;5.73;;
66559;SDS011;53413;49.878;8.142;2023-03-09T00:11:45;12.70;;;5.45;;
66559;SDS011;53413;49.878;8.142;2023-03-09T00:14:12;12.00;;;5.57;;
66559;SDS011;53413;49.878;8.142;2023-03-09T00:16:39;11.80;;;5.30;;
66559;SDS011;53413;49.878;8.142;2023-03-09T00:19:04;14.18;;;5.60;;
66559;SDS011;53413;49.878;8.142;2023-03-09T00:21:30;12.77;;;5.47;;
66559;SDS011;53413;49.878;8.142;2023-03-09T00:24:13;12.00;;;5.15;;
66559;SDS011;53413;49.878;8.142;2023-03-09T00:26:42;10.20;;;5.00;;
66559;SDS011;53413;49.878;8.142;2023-03-09T00:29:10;11.38;;;5.60;;
66559;SDS011;53413;49.878;8.142;2023-03-09T00:31:37;9.90;;;4.60;;
66559;SDS011;53413;49.878;8.142;2023-03-09T00:34:03;10.48;;;4.55;;
66559;SDS011;53413;49.878;8.142;2023-03-09T00:36:29;9.60;;;4.40;;
66559;SDS011;53413;49.878;8.142;2023-03-09T00:38:55;6.53;;;2.60;;
66559;SDS011;53413;49.878;8.142;2023-03-09T00:41:22;6.18;;;2.40;;
66559;SDS011;53413;49.878;8.142;2023-03-09T00:43:49;5.87;;;2.30;;
66559;SDS011;53413;49.878;8.142;2023-03-09T00:46:14;5.40;;;2.22;;
66559;SDS011;53413;49.878;8.142;2023-03-09T00:48:41;5.22;;;2.38;;
66559;SDS011;53413;49.878;8.142;2023-03-09T00:51:07;5.10;;;2.05;;
66559;SDS011;53413;49.878;8.142;2023-03-09T00:53:34;6.32;;;2.40;;
66559;SDS011;53413;49.878;8.142;2023-03-09T00:56:01;6.70;;;2.60;;
66559;SDS011;53413;49.878;8.142;2023-03-09T00:58:30;6.38;;;2.67;;
66559;SDS011;53413;49.878;8.142;2023-03-09T01:00:56;7.88;;;2.75;;
66559;SDS011;53413;49.878;8.142;2023-03-09T01:03:21;6.50;;;2.40;;
66559;SDS011;53413;49.878;8.142;2023-03-09T01:05:47;7.10;;;2.80;;
66559;SDS011;53413;49.878;8.142;2023-03-09T01:08:12;6.33;;;2.63;;
66559;SDS011;53413;49.878;8.142;2023-03-09T01:10:38;6.63;;;2.63;;
66559;SDS011;53413;49.878;8.142;2023-03-09T01:13:04;5.97;;;2.70;;
66559;SDS011;53413;49.878;8.142;2023-03-09T01:15:29;5.73;;;2.23;;
66559;SDS011;53413;49.878;8.142;2023-03-09T01:17:55;6.82;;;2.17;;
66559;SDS011;53413;49.878;8.142;2023-03-09T01:20:21;5.57;;;1.80;;
66559;SDS011;53413;49.878;8.142;2023-03-09T01:22:46;4.57;;;1.77;;
66559;SDS011;53413;49.878;8.142;2023-03-09T01:25:12;5.60;;;1.50;;
66559;SDS011;53413;49.878;8.142;2023-03-09T01:27:37;4.30;;;1.30;;
66559;SDS011;53413;49.878;8.142;2023-03-09T01:30:03;4.47;;;1.20;;
66559;SDS011;53413;49.878;8.142;2023-03-09T01:32:28;4.35;;;1.40;;
66559;SDS011;53413;49.878;8.142;2023-03-09T01:34:54;2.93;;;0.90;;
66559;SDS011;53413;49.878;8.142;2023-03-09T01:37:19;3.00;;;0.90;;
66559;SDS011;53413;49.878;8.142;2023-03-09T01:39:45;3.60;;;0.80;;
66559;SDS011;53413;49.878;8.142;2023-03-09T01:42:10;3.58;;;0.90;;
66559;SDS011;53413;49.878;8.142;2023-03-09T01:44:36;3.55;;;0.70;;
66559;SDS011;53413;49.878;8.142;2023-03-09T01:47:02;3.58;;;0.90;;
66559;SDS011;53413;49.878;8.142;2023-03-09T01:49:40;3.20;;;1.00;;
66559;SDS011;53413;49.878;8.142;2023-03-09T01:52:15;3.75;;;0.77;;
66559;SDS011;53413;49.878;8.142;2023-03-09T02:00:10;4.13;;;1.25;;
66559;SDS011;53413;49.878;8.142;2023-03-09T02:02:40;3.40;;;0.90;;
66559;SDS011;53413;49.878;8.142;2023-03-09T02:05:12;5.80;;;0.82;;
66559;SDS011;53413;49.878;8.142;2023-03-09T02:07:42;2.88;;;0.70;;
66559;SDS011;53413;49.878;8.142;2023-03-09T02:10:21;2.72;;;0.68;;
66559;SDS011;53413;49.878;8.142;2023-03-09T02:12:51;2.78;;;0.60;;
66559;SDS011;53413;49.878;8.142;2023-03-09T02:15:22;3.83;;;0.60;;
66559;SDS011;53413;49.878;8.142;2023-03-09T02:17:48;3.35;;;0.70;;
66559;SDS011;53413;49.878;8.142;2023-03-09T02:22:42;2.10;;;0.57;;
66559;SDS011;53413;49.878;8.142;2023-03-09T02:27:39;2.00;;;0.50;;
66559;SDS011;53413;49.878;8.142;2023-03-09T02:30:05;2.85;;;0.60;;
66559;SDS011;53413;49.878;8.142;2023-03-09T02:32:32;2.13;;;0.40;;
66559;SDS011;53413;49.878;8.142;2023-03-09T02:34:58;1.83;;;0.50;;
66559;SDS011;53413;49.878;8.142;2023-03-09T02:37:28;2.20;;;0.50;;
66559;SDS011;53413;49.878;8.142;2023-03-09T02:40:11;2.35;;;0.40;;
66559;SDS011;53413;49.878;8.142;2023-03-09T02:42:41;2.85;;;0.50;;
66559;SDS011;53413;49.878;8.142;2023-03-09T02:45:08;2.22;;;0.40;;
66559;SDS011;53413;49.878;8.142;2023-03-09T02:47:37;1.92;;;0.40;;
66559;SDS011;53413;49.878;8.142;2023-03-09T02:50:04;2.20;;;0.50;;
66559;SDS011;53413;49.878;8.142;2023-03-09T02:52:31;2.20;;;0.52;;
66559;SDS011;53413;49.878;8.142;2023-03-09T02:54:56;4.90;;;1.83;;
66559;SDS011;53413;49.878;8.142;2023-03-09T02:57:21;4.00;;;0.70;;
66559;SDS011;53413;49.878;8.142;2023-03-09T02:59:47;3.92;;;1.42;;
66559;SDS011;53413;49.878;8.142;2023-03-09T03:02:12;1.42;;;0.35;;
66559;SDS011;53413;49.878;8.142;2023-03-09T03:04:38;2.13;;;0.40;;
66559;SDS011;53413;49.878;8.142;2023-03-09T03:07:04;2.28;;;0.60;;
66559;SDS011;53413;49.878;8.142;2023-03-09T03:09:29;2.40;;;0.40;;
66559;SDS011;53413;49.878;8.142;2023-03-09T03:11:55;2.92;;;0.50;;
66559;SDS011;53413;49.878;8.142;2023-03-09T03:14:21;2.20;;;0.50;;
66559;SDS011;53413;49.878;8.142;2023-03-09T03:16:46;6.83;;;0.50;;
66559;SDS011;53413;49.878;8.142;2023-03-09T03:19:12;2.13;;;0.40;;
66559;SDS011;53413;49.878;8.142;2023-03-09T03:21:37;1.60;;;0.40;;
66559;SDS011;53413;49.878;8.142;2023-03-09T03:24:03;2.17;;;0.40;;
66559;SDS011;53413;49.878;8.142;2023-03-09T03:26:28;2.07;;;0.40;;
66559;SDS011;53413;49.878;8.142;2023-03-09T03:28:54;4.72;;;0.60;;
66559;SDS011;53413;49.878;8.142;2023-03-09T03:31:19;2.63;;;0.50;;
66559;SDS011;53413;49.878;8.142;2023-03-09T03:33:44;2.60;;;0.40;;
66559;SDS011;53413;49.878;8.142;2023-03-09T03:36:10;2.13;;;0.60;;
66559;SDS011;53413;49.878;8.142;2023-03-09T03:38:35;2.37;;;0.47;;
66559;SDS011;53413;49.878;8.142;2023-03-09T03:41:00;1.83;;;0.47;;
66559;SDS011;53413;49.878;8.142;2023-03-09T03:43:26;2.33;;;0.50;;
66559;SDS011;53413;49.878;8.142;2023-03-09T03:45:51;2.10;;;0.60;;
66559;SDS011;53413;49.878;8.142;2023-03-09T03:48:16;1.75;;;0.30;;
66559;SDS011;53413;49.878;8.142;2023-03-09T03:50:42;1.98;;;0.50;;
66559;SDS011;53413;49.878;8.142;2023-03-09T03:53:07;2.03;;;0.50;;
66559;SDS011;53413;49.878;8.142;2023-03-09T03:55:33;3.03;;;0.50;;
66559;SDS011;53413;49.878;8.142;2023-03-09T03:57:58;2.43;;;0.40;;
66559;SDS011;53413;49.878;8.142;2023-03-09T04:00:23;2.63;;;0.50;;
66559;SDS011;53413;49.878;8.142;2023-03-09T04:02:49;2.58;;;0.50;;
66559;SDS011;53413;49.878;8.142;2023-03-09T04:05:15;3.00;;;0.60;;
66559;SDS011;53413;49.878;8.142;2023-03-09T04:07:41;3.08;;;0.50;;
66559;SDS011;53413;49.878;8.142;2023-03-09T04:10:06;3.00;;;0.50;;
66559;SDS011;53413;49.878;8.142;2023-03-09T04:12:32;2.10;;;0.50;;
66559;SDS011;53413;49.878;8.142;2023-03-09T04:14:58;2.60;;;0.60;;
66559;SDS011;53413;49.878;8.142;2023-03-09T04:17:23;2.33;;;0.60;;
66559;SDS011;53413;49.878;8.142;2023-03-09T04:19:49;2.60;;;0.60;;
66559;SDS011;53413;49.878;8.142;2023-03-09T04:22:14;3.43;;;0.70;;
66559;SDS011;53413;49.878;8.142;2023-03-09T04:24:39;2.87;;;0.60;;
66559;SDS011;53413;49.878;8.142;2023-03-09T04:27:05;3.80;;;0.73;;
66559;SDS011;53413;49.878;8.142;2023-03-09T04:29:30;2.83;;;0.70;;
66559;SDS011;53413;49.878;8.142;2023-03-09T04:31:55;2.70;;;0.60;;
66559;SDS011;53413;49.878;8.142;2023-03-09T04:34:21;3.27;;;0.50;;
66559;SDS011;53413;49.878;8.142;2023-03-09T04:36:46;3.37;;;0.80;;
66559;SDS011;53413;49.878;8.142;2023-03-09T04:39:12;3.73;;;0.70;;
66559;SDS011;53413;49.878;8.142;2023-03-09T04:41:37;2.80;;;0.60;;
66559;SDS011;53413;49.878;8.142;2023-03-09T04:44:02;3.53;;;0.80;;
66559;SDS011;53413;49.878;8.142;2023-03-09T04:46:28;4.18;;;0.90;;
66559;SDS011;53413;49.878;8.142;2023-03-09T04:48:53;3.40;;;0.80;;
66559;SDS011;53413;49.878;8.142;2023-03-09T04:51:19;4.77;;;0.70;;
66559;SDS011;53413;49.878;8.142;2023-03-09T04:53:45;4.68;;;1.00;;
66559;SDS011;53413;49.878;8.142;2023-03-09T04:56:10;4.77;;;1.27;;
66559;SDS011;53413;49.878;8.142;2023-03-09T04:58:35;3.93;;;1.03;;
66559;SDS011;53413;49.878;8.142;2023-03-09T05:01:01;5.23;;;1.00;;
66559;SDS011;53413;49.878;8.142;2023-03-09T05:03:27;5.03;;;1.10;;
66559;SDS011;53413;49.878;8.142;2023-03-09T05:05:53;4.32;;;1.00;;
66559;SDS011;53413;49.878;8.142;2023-03-09T05:08:18;4.57;;;0.80;;
66559;SDS011;53413;49.878;8.142;2023-03-09T05:10:44;4.47;;;0.80;;
66559;SDS011;53413;49.878;8.142;2023-03-09T05:13:09;5.70;;;1.00;;
66559;SDS011;53413;49.878;8.142;2023-03-09T05:15:37;5.73;;;1.00;;
66559;SDS011;53413;49.878;8.142;2023-03-09T05:18:06;5.90;;;1.00;;
66559;SDS011;53413;49.878;8.142;2023-03-09T05:20:33;7.32;;;1.02;;
66559;SDS011;53413;49.878;8.142;2023-03-09T05:22:59;5.10;;;0.88;;
66559;SDS011;53413;49.878;8.142;2023-03-09T05:25:25;5.33;;;1.00;;
66559;SDS011;53413;49.878;8.142;2023-03-09T05:27:50;5.30;;;1.00;;
66559;SDS011;53413;49.878;8.142;2023-03-09T05:30:16;5.22;;;0.90;;
66559;SDS011;53413;49.878;8.142;2023-03-09T05:32:42;5.33;;;1.07;;
66559;SDS011;53413;49.878;8.142;2023-03-09T05:35:07;5.65;;;1.08;;
66559;SDS011;53413;49.878;8.142;2023-03-09T05:37:33;5.53;;;0.90;;
66559;SDS011;53413;49.878;8.142;2023-03-09T05:39:59;4.75;;;0.98;;
66559;SDS011;53413;49.878;8.142;2023-03-09T05:42:24;3.70;;;0.90;;
66559;SDS011;53413;49.878;8.142;2023-03-09T05:44:50;6.57;;;1.10;;
66559;SDS011;53413;49.878;8.142;2023-03-09T05:47:15;6.27;;;1.03;;
66559;SDS011;53413;49.878;8.142;2023-03-09T05:49:40;5.00;;;1.13;;
66559;SDS011;53413;49.878;8.142;2023-03-09T05:52:06;5.03;;;1.10;;
66559;SDS011;53413;49.878;8.142;2023-03-09T05:54:32;6.13;;;1.23;;
66559;SDS011;53413;49.878;8.142;2023-03-09T05:56:57;6.53;;;1.00;;
66559;SDS011;53413;49.878;8.142;2023-03-09T05:59:22;6.22;;;1.25;;
66559;SDS011;53413;49.878;8.142;2023-03-09T06:01:48;5.93;;;1.13;;
66559;SDS011;53413;49.878;8.142;2023-03-09T06:04:13;7.47;;;1.40;;
66559;SDS011;53413;49.878;8.142;2023-03-09T06:06:39;9.07;;;1.60;;
66559;SDS011;53413;49.878;8.142;2023-03-09T06:09:04;10.05;;;1.60;;
66559;SDS011;53413;49.878;8.142;2023-03-09T06:11:30;9.17;;;1.50;;
66559;SDS011;53413;49.878;8.142;2023-03-09T06:13:56;8.52;;;1.70;;
66559;SDS011;53413;49.878;8.142;2023-03-09T06:16:22;8.10;;;1.50;;
66559;SDS011;53413;49.878;8.142;2023-03-09T06:18:49;7.85;;;1.63;;
66559;SDS011;53413;49.878;8.142;2023-03-09T06:21:14;6.80;;;1.30;;
66559;SDS011;53413;49.878;8.142;2023-03-09T06:23:40;7.30;;;1.65;;
66559;SDS011;53413;49.878;8.142;2023-03-09T06:26:06;7.17;;;1.40;;
66559;SDS011;53413;49.878;8.142;2023-03-09T06:28:34;7.20;;;1.63;;
66559;SDS011;53413;49.878;8.142;2023-03-09T06:31:04;8.60;;;1.30;;
66559;SDS011;53413;49.878;8.142;2023-03-09T06:33:30;6.10;;;1.60;;
66559;SDS011;53413;49.878;8.142;2023-03-09T06:35:56;8.50;;;1.70;;
66559;SDS011;53413;49.878;8.142;2023-03-09T06:38:22;13.07;;;2.23;;
66559;SDS011;53413;49.878;8.142;2023-03-09T06:40:52;7.72;;;2.42;;
66559;SDS011;53413;49.878;8.142;2023-03-09T06:43:18;10.47;;;3.10;;
66559;SDS011;53413;49.878;8.142;2023-03-09T06:45:46;8.18;;;2.55;;
66559;SDS011;53413;49.878;8.142;2023-03-09T06:48:11;9.52;;;3.08;;
66559;SDS011;53413;49.878;8.142;2023-03-09T06:50:37;6.97;;;2.70;;
66559;SDS011;53413;49.878;8.142;2023-03-09T06:53:02;12.53;;;3.30;;
66559;SDS011;53413;49.878;8.142;2023-03-09T06:55:28;10.43;;;3.10;;
66559;SDS011;53413;49.878;8.142;2023-03-09T06:57:53;9.10;;;3.07;;
66559;SDS011;53413;49.878;8.142;2023-03-09T07:00:19;11.70;;;2.70;;
66559;SDS011;53413;49.878;8.142;2023-03-09T07:02:45;10.68;;;3.03;;
66559;SDS011;53413;49.878;8.142;2023-03-09T07:05:10;10.47;;;3.07;;
66559;SDS011;53413;49.878;8.142;2023-03-09T07:07:36;7.80;;;2.63;;
66559;SDS011;53413;49.878;8.142;2023-03-09T07:10:02;7.73;;;2.50;;
66559;SDS011;53413;49.878;8.142;2023-03-09T07:12:28;9.43;;;2.45;;
66559;SDS011;53413;49.878;8.142;2023-03-09T07:14:54;7.87;;;2.60;;
66559;SDS011;53413;49.878;8.142;2023-03-09T07:17:19;6.60;;;2.40;;
66559;SDS011;53413;49.878;8.142;2023-03-09T07:19:44;7.60;;;2.47;;
66559;SDS011;53413;49.878;8.142;2023-03-09T07:22:11;7.80;;;2.10;;
66559;SDS011;53413;49.878;8.142;2023-03-09T07:24:37;6.57;;;2.15;;
66559;SDS011;53413;49.878;8.142;2023-03-09T07:27:03;6.17;;;1.80;;
66559;SDS011;53413;49.878;8.142;2023-03-09T07:29:28;6.60;;;1.75;;
66559;SDS011;53413;49.878;8.142;2023-03-09T07:31:54;6.20;;;1.87;;
66559;SDS011;53413;49.878;8.142;2023-03-09T07:34:19;4.70;;;1.30;;
66559;SDS011;53413;49.878;8.142;2023-03-09T07:36:46;6.40;;;1.60;;
66559;SDS011;53413;49.878;8.142;2023-03-09T07:39:11;7.80;;;1.70;;
66559;SDS011;53413;49.878;8.142;2023-03-09T07:41:37;4.45;;;1.35;;
66559;SDS011;53413;49.878;8.142;2023-03-09T07:44:02;5.15;;;1.33;;
66559;SDS011;53413;49.878;8.142;2023-03-09T07:46:28;5.83;;;1.40;;
66559;SDS011;53413;49.878;8.142;2023-03-09T07:48:53;4.37;;;1.30;;
66559;SDS011;53413;49.878;8.142;2023-03-09T07:51:18;5.63;;;1.50;;
66559;SDS011;53413;49.878;8.142;2023-03-09T07:53:44;4.75;;;1.40;;
66559;SDS011;53413;49.878;8.142;2023-03-09T07:56:09;5.10;;;1.40;;
66559;SDS011;53413;49.878;8.142;2023-03-09T07:58:36;3.77;;;1.30;;
66559;SDS011;53413;49.878;8.142;2023-03-09T08:01:03;4.35;;;1.50;;
66559;SDS011;53413;49.878;8.142;2023-03-09T08:03:29;3.83;;;1.20;;
66559;SDS011;53413;49.878;8.142;2023-03-09T08:05:55;5.23;;;1.37;;
66559;SDS011;53413;49.878;8.142;2023-03-09T08:08:24;4.50;;;1.30;;
66559;SDS011;53413;49.878;8.142;2023-03-09T08:10:51;4.43;;;1.50;;
66559;SDS011;53413;49.878;8.142;2023-03-09T08:13:18;3.90;;;1.23;;
66559;SDS011;53413;49.878;8.142;2023-03-09T08:15:44;5.80;;;1.40;;
66559;SDS011;53413;49.878;8.142;2023-03-09T08:18:09;4.50;;;1.10;;
66559;SDS011;53413;49.878;8.142;2023-03-09T08:20:35;4.20;;;1.13;;
66559;SDS011;53413;49.878;8.142;2023-03-09T08:23:01;5.10;;;1.27;;
66559;SDS011;53413;49.878;8.142;2023-03-09T08:25:28;3.93;;;1.40;;
66559;SDS011;53413;49.878;8.142;2023-03-09T08:27:54;4.40;;;1.20;;
66559;SDS011;53413;49.878;8.142;2023-03-09T08:30:19;4.10;;;1.20;;
66559;SDS011;53413;49.878;8.142;2023-03-09T08:32:46;4.57;;;1.37;;
66559;SDS011;53413;49.878;8.142;2023-03-09T08:35:13;4.32;;;1.40;;
66559;SDS011;53413;49.878;8.142;2023-03-09T08:37:40;4.97;;;1.30;;
66559;SDS011;53413;49.878;8.142;2023-03-09T08:40:06;4.43;;;1.40;;
66559;SDS011;53413;49.878;8.142;2023-03-09T08:42:32;5.20;;;1.17;;
66559;SDS011;53413;49.878;8.142;2023-03-09T08:44:59;4.93;;;1.20;;
66559;SDS011;53413;49.878;8.142;2023-03-09T08:47:24;4.82;;;1.10;;
66559;SDS011;53413;49.878;8.142;2023-03-09T08:49:50;4.97;;;1.20;;
66559;SDS011;53413;49.878;8.142;2023-03-09T08:52:15;5.03;;;1.03;;
66559;SDS011;53413;49.878;8.142;2023-03-09T08:54:40;5.30;;;1.10;;
66559;SDS011;53413;49.878;8.142;2023-03-09T08:57:06;5.93;;;0.90;;
66559;SDS011;53413;49.878;8.142;2023-03-09T08:59:32;4.93;;;1.00;;
66559;SDS011;53413;49.878;8.142;2023-03-09T09:01:57;5.20;;;1.13;;
66559;SDS011;53413;49.878;8.142;2023-03-09T09:04:23;5.37;;;1.00;;
66559;SDS011;53413;49.878;8.142;2023-03-09T09:06:49;4.15;;;1.05;;
66559;SDS011;53413;49.878;8.142;2023-03-09T09:09:15;5.07;;;1.10;;
66559;SDS011;53413;49.878;8.142;2023-03-09T09:11:40;4.30;;;1.10;;
66559;SDS011;53413;49.878;8.142;2023-03-09T09:14:05;4.87;;;1.10;;
66559;SDS011;53413;49.878;8.142;2023-03-09T09:16:31;5.33;;;1.20;;
66559;SDS011;53413;49.878;8.142;2023-03-09T09:18:56;5.90;;;1.20;;
66559;SDS011;53413;49.878;8.142;2023-03-09T09:21:22;5.45;;;1.20;;
66559;SDS011;53413;49.878;8.142;2023-03-09T09:23:48;5.20;;;1.17;;
66559;SDS011;53413;49.878;8.142;2023-03-09T09:26:14;7.95;;;1.27;;
66559;SDS011;53413;49.878;8.142;2023-03-09T09:28:40;7.05;;;1.40;;
66559;SDS011;53413;49.878;8.142;2023-03-09T09:31:06;6.22;;;1.02;;
66559;SDS011;53413;49.878;8.142;2023-03-09T09:33:32;4.03;;;1.03;;
66559;SDS011;53413;49.878;8.142;2023-03-09T09:36:00;4.53;;;1.02;;
66559;SDS011;53413;49.878;8.142;2023-03-09T09:38:28;6.50;;;1.30;;
66559;SDS011;53413;49.878;8.142;2023-03-09T09:40:55;6.07;;;1.20;;
66559;SDS011;53413;49.878;8.142;2023-03-09T09:43:23;5.07;;;1.10;;
66559;SDS011;53413;49.878;8.142;2023-03-09T09:45:51;7.45;;;1.45;;
66559;SDS011;53413;49.878;8.142;2023-03-09T09:48:19;6.43;;;1.20;;
66559;SDS011;53413;49.878;8.142;2023-03-09T09:53:16;6.37;;;1.23;;
66559;SDS011;53413;49.878;8.142;2023-03-09T09:55:57;6.72;;;1.35;;
66559;SDS011;53413;49.878;8.142;2023-03-09T09:58:45;6.43;;;1.20;;
66559;SDS011;53413;49.878;8.142;2023-03-09T10:04:29;5.68;;;1.33;;
66559;SDS011;53413;49.878;8.142;2023-03-09T10:07:02;5.65;;;1.55;;
66559;SDS011;53413;49.878;8.142;2023-03-09T10:09:38;7.13;;;1.40;;
66559;SDS011;53413;49.878;8.142;2023-03-09T10:12:06;6.53;;;1.30;;
66559;SDS011;53413;49.878;8.142;2023-03-09T10:14:39;6.20;;;1.30;;
66559;SDS011;53413;49.878;8.142;2023-03-09T10:17:34;7.75;;;1.40;;
66559;SDS011;53413;49.878;8.142;2023-03-09T10:20:22;7.30;;;1.45;;
66559;SDS011;53413;49.878;8.142;2023-03-09T10:22:52;5.00;;;1.40;;
66559;SDS011;53413;49.878;8.142;2023-03-09T10:25:20;5.30;;;1.30;;
66559;SDS011;53413;49.878;8.142;2023-03-09T10:27:54;8.57;;;1.50;;
66559;SDS011;53413;49.878;8.142;2023-03-09T10:31:12;5.82;;;1.30;;
66559;SDS011;53413;49.878;8.142;2023-03-09T10:38:40;6.33;;;1.20;;
66559;SDS011;53413;49.878;8.142;2023-03-09T10:41:11;6.05;;;1.33;;
66559;SDS011;53413;49.878;8.142;2023-03-09T10:43:40;7.93;;;1.40;;
66559;SDS011;53413;49.878;8.142;2023-03-09T10:48:45;6.30;;;1.27;;
66559;SDS011;53413;49.878;8.142;2023-03-09T10:53:55;5.93;;;1.30;;
66559;SDS011;53413;49.878;8.142;2023-03-09T10:59:23;5.43;;;1.10;;
66559;SDS011;53413;49.878;8.142;2023-03-09T11:01:44;5.13;;;1.10;;
66559;SDS011;53413;49.878;8.142;2023-03-09T11:07:05;5.32;;;1.20;;
66559;SDS011;53413;49.878;8.142;2023-03-09T11:14:33;5.75;;;1.23;;
66559;SDS011;53413;49.878;8.142;2023-03-09T11:22:44;6.10;;;1.52;;
66559;SDS011;53413;49.878;8.142;2023-03-09T11:28:10;5.63;;;1.10;;
66559;SDS011;53413;49.878;8.142;2023-03-09T11:30:40;5.37;;;1.40;;
66559;SDS011;53413;49.878;8.142;2023-03-09T11:33:09;4.85;;;1.30;;
66559;SDS011;53413;49.878;8.142;2023-03-09T11:35:38;5.63;;;1.40;;
66559;SDS011;53413;49.878;8.142;2023-03-09T11:38:05;4.63;;;1.30;;
66559;SDS011;53413;49.878;8.142;2023-03-09T11:40:36;5.60;;;1.37;;
66559;SDS011;53413;49.878;8.142;2023-03-09T11:45:41;5.25;;;1.42;;
66559;SDS011;53413;49.878;8.142;2023-03-09T11:50:45;5.32;;;1.38;;
66559;SDS011;53413;49.878;8.142;2023-03-09T11:55:54;4.53;;;1.20;;
66559;SDS011;53413;49.878;8.142;2023-03-09T11:58:28;4.70;;;1.20;;
66559;SDS011;53413;49.878;8.142;2023-03-09T12:01:07;4.15;;;1.27;;
66559;SDS011;53413;49.878;8.142;2023-03-09T12:03:58;5.43;;;1.33;;
66559;SDS011;53413;49.878;8.142;2023-03-09T12:06:30;5.00;;;1.20;;
66559;SDS011;53413;49.878;8.142;2023-03-09T12:08:57;7.22;;;1.50;;
66559;SDS011;53413;49.878;8.142;2023-03-09T12:14:00;5.53;;;1.38;;
66559;SDS011;53413;49.878;8.142;2023-03-09T12:16:33;7.50;;;1.63;;
66559;SDS011;53413;49.878;8.142;2023-03-09T12:21:31;6.97;;;1.70;;
66559;SDS011;53413;49.878;8.142;2023-03-09T12:23:58;6.15;;;1.60;;
66559;SDS011;53413;49.878;8.142;2023-03-09T12:26:39;7.45;;;1.70;;
66559;SDS011;53413;49.878;8.142;2023-03-09T12:34:50;8.50;;;1.58;;
66559;SDS011;53413;49.878;8.142;2023-03-09T12:42:41;5.78;;;1.30;;
66559;SDS011;53413;49.878;8.142;2023-03-09T12:50:36;6.65;;;1.60;;
66559;SDS011;53413;49.878;8.142;2023-03-09T12:53:20;6.57;;;1.73;;
66559;SDS011;53413;49.878;8.142;2023-03-09T13:03:29;6.18;;;2.17;;
66559;SDS011;53413;49.878;8.142;2023-03-09T13:06:19;7.15;;;1.95;;
66559;SDS011;53413;49.878;8.142;2023-03-09T13:08:48;6.95;;;1.80;;
66559;SDS011;53413;49.878;8.142;2023-03-09T13:13:54;7.40;;;1.70;;
66559;SDS011;53413;49.878;8.142;2023-03-09T13:21:39;6.97;;;1.70;;
66559;SDS011;53413;49.878;8.142;2023-03-09T13:26:58;5.57;;;1.77;;
66559;SDS011;53413;49.878;8.142;2023-03-09T13:29:26;5.53;;;1.80;;
66559;SDS011;53413;49.878;8.142;2023-03-09T13:31:52;6.07;;;1.77;;
66559;SDS011;53413;49.878;8.142;2023-03-09T13:34:22;5.57;;;1.83;;
66559;SDS011;53413;49.878;8.142;2023-03-09T13:36:52;4.78;;;1.48;;
66559;SDS011;53413;49.878;8.142;2023-03-09T13:39:22;4.73;;;1.40;;
66559;SDS011;53413;49.878;8.142;2023-03-09T13:41:49;6.88;;;1.40;;
66559;SDS011;53413;49.878;8.142;2023-03-09T13:44:17;5.13;;;1.20;;
66559;SDS011;53413;49.878;8.142;2023-03-09T13:46:48;4.85;;;1.00;;
66559;SDS011;53413;49.878;8.142;2023-03-09T13:56:57;7.10;;;1.42;;
66559;SDS011;53413;49.878;8.142;2023-03-09T13:59:49;6.00;;;1.40;;
66559;SDS011;53413;49.878;8.142;2023-03-09T14:02:25;7.30;;;1.40;;
66559;SDS011;53413;49.878;8.142;2023-03-09T14:07:22;7.37;;;1.90;;
66559;SDS011;53413;49.878;8.142;2023-03-09T14:09:57;6.93;;;1.88;;
66559;SDS011;53413;49.878;8.142;2023-03-09T14:14:56;9.63;;;1.90;;
66559;SDS011;53413;49.878;8.142;2023-03-09T14:17:24;8.80;;;1.80;;
66559;SDS011;53413;49.878;8.142;2023-03-09T14:19:51;7.77;;;1.80;;
66559;SDS011;53413;49.878;8.142;2023-03-09T14:22:18;9.93;;;2.10;;
66559;SDS011;53413;49.878;8.142;2023-03-09T14:24:51;6.32;;;1.50;;
66559;SDS011;53413;49.878;8.142;2023-03-09T14:27:29;6.03;;;1.50;;
66559;SDS011;53413;49.878;8.142;2023-03-09T14:32:59;7.47;;;1.42;;
66559;SDS011;53413;49.878;8.142;2023-03-09T14:37:56;7.10;;;1.67;;
66559;SDS011;53413;49.878;8.142;2023-03-09T14:40:26;7.43;;;1.63;;
66559;SDS011;53413;49.878;8.142;2023-03-09T14:42:54;7.30;;;1.60;;
66559;SDS011;53413;49.878;8.142;2023-03-09T14:45:21;8.35;;;1.90;;
66559;SDS011;53413;49.878;8.142;2023-03-09T14:47:52;8.83;;;1.80;;
66559;SDS011;53413;49.878;8.142;2023-03-09T14:50:21;8.65;;;1.50;;
66559;SDS011;53413;49.878;8.142;2023-03-09T14:52:48;6.18;;;1.50;;
66559;SDS011;53413;49.878;8.142;2023-03-09T14:55:15;7.53;;;1.70;;
66559;SDS011;53413;49.878;8.142;2023-03-09T14:57:42;6.38;;;1.50;;
66559;SDS011;53413;49.878;8.142;2023-03-09T15:00:12;8.03;;;1.80;;
66559;SDS011;53413;49.878;8.142;2023-03-09T15:02:49;9.95;;;2.10;;
66559;SDS011;53413;49.878;8.142;2023-03-09T15:05:20;7.43;;;1.75;;
66559;SDS011;53413;49.878;8.142;2023-03-09T15:07:47;7.68;;;1.50;;
66559;SDS011;53413;49.878;8.142;2023-03-09T15:10:14;8.52;;;1.33;;
66559;SDS011;53413;49.878;8.142;2023-03-09T15:12:41;8.97;;;1.40;;
66559;SDS011;53413;49.878;8.142;2023-03-09T15:15:14;11.35;;;1.63;;
66559;SDS011;53413;49.878;8.142;2023-03-09T15:17:42;7.80;;;1.50;;
66559;SDS011;53413;49.878;8.142;2023-03-09T15:20:12;6.73;;;1.30;;
66559;SDS011;53413;49.878;8.142;2023-03-09T15:22:39;7.00;;;1.40;;
66559;SDS011;53413;49.878;8.142;2023-03-09T15:25:04;7.93;;;1.70;;
66559;SDS011;53413;49.878;8.142;2023-03-09T15:27:30;7.90;;;1.50;;
66559;SDS011;53413;49.878;8.142;2023-03-09T15:29:55;8.15;;;1.70;;
66559;SDS011;53413;49.878;8.142;2023-03-09T15:32:21;7.18;;;1.70;;
66559;SDS011;53413;49.878;8.142;2023-03-09T15:34:46;11.80;;;1.70;;
66559;SDS011;53413;49.878;8.142;2023-03-09T15:37:11;8.97;;;1.50;;
66559;SDS011;53413;49.878;8.142;2023-03-09T15:39:37;8.47;;;1.50;;
66559;SDS011;53413;49.878;8.142;2023-03-09T15:42:02;7.57;;;1.70;;
66559;SDS011;53413;49.878;8.142;2023-03-09T15:44:28;9.07;;;1.88;;
66559;SDS011;53413;49.878;8.142;2023-03-09T15:46:53;8.97;;;1.80;;
66559;SDS011;53413;49.878;8.142;2023-03-09T15:49:19;11.60;;;2.20;;
66559;SDS011;53413;49.878;8.142;2023-03-09T15:51:45;9.45;;;2.10;;
66559;SDS011;53413;49.878;8.142;2023-03-09T15:54:11;12.07;;;2.38;;
66559;SDS011;53413;49.878;8.142;2023-03-09T15:56:36;10.63;;;2.10;;
66559;SDS011;53413;49.878;8.142;2023-03-09T15:59:02;9.23;;;1.73;;
66559;SDS011;53413;49.878;8.142;2023-03-09T16:01:28;9.15;;;1.92;;
66559;SDS011;53413;49.878;8.142;2023-03-09T16:03:54;8.60;;;1.70;;
66559;SDS011;53413;49.878;8.142;2023-03-09T16:06:20;12.30;;;1.97;;
66559;SDS011;53413;49.878;8.142;2023-03-09T16:08:47;12.77;;;1.80;;
66559;SDS011;53413;49.878;8.142;2023-03-09T16:11:13;10.35;;;1.88;;
66559;SDS011;53413;49.878;8.142;2023-03-09T16:13:39;11.70;;;1.70;;
66559;SDS011;53413;49.878;8.142;2023-03-09T16:16:08;10.33;;;1.63;;
66559;SDS011;53413;49.878;8.142;2023-03-09T16:18:34;11.65;;;1.83;;
66559;SDS011;53413;49.878;8.142;2023-03-09T16:21:00;11.17;;;2.00;;
66559;SDS011;53413;49.878;8.142;2023-03-09T16:23:27;10.07;;;2.20;;
66559;SDS011;53413;49.878;8.142;2023-03-09T16:25:53;8.63;;;2.10;;
66559;SDS011;53413;49.878;8.142;2023-03-09T16:28:20;10.95;;;2.00;;
66559;SDS011;53413;49.878;8.142;2023-03-09T16:30:46;11.57;;;3.10;;
66559;SDS011;53413;49.878;8.142;2023-03-09T16:33:13;10.70;;;2.20;;
66559;SDS011;53413;49.878;8.142;2023-03-09T16:35:38;16.23;;;5.78;;
66559;SDS011;53413;49.878;8.142;2023-03-09T16:38:04;14.00;;;3.65;;
66559;SDS011;53413;49.878;8.142;2023-03-09T16:40:29;11.50;;;2.83;;